Time;durP1;ratioP1;P1;durP2;ratioP2;P2;SDS_P1;SDS_P2;PMS_P1;PMS_P2;Temp;Humidity;BMP_temperature;BMP_pressure;BME280_temperature;BME280_humidity;BME280_pressure;Samples;Min_cycle;Max_cycle;Signal;HPM_P1;HPM_P2
2023/04/20 01:17:36;;;;;;;1.60;1.15;;;18.70;48.30;;;;;;5060793;28;20325;-37
2023/04/20 01:20:04;;;;;;;2.92;1.48;;;;;;;;;;5054218;28;20053;-33
2023/04/20 01:22:32;;;;;;;1.80;1.35;;;18.70;48.30;;;;;;5053696;28;20053;-36
2023/04/20 01:24:59;;;;;;;1.60;1.30;;;;;;;;;;5053657;28;20132;-38
2023/04/20 01:27:26;;;;;;;2.35;1.50;;;18.40;63.50;;;;;;5053799;28;20052;-33
2023/04/20 01:29:52;;;;;;;2.47;1.50;;;19.60;75.40;;;;;;5053641;28;20055;-37
2023/04/20 01:32:19;;;;;;;2.17;1.40;;;;;;;;;;5053483;28;20045;-35
2023/04/20 01:34:46;;;;;;;2.10;1.23;;;19.30;73.80;;;;;;5053372;28;20057;-33
2023/04/20 01:37:13;;;;;;;2.55;1.42;;;18.50;75.20;;;;;;5064538;28;20511;-37
2023/04/20 01:39:42;;;;;;;3.08;1.27;;;18.80;48.30;;;;;;5073424;28;20071;-33
2023/04/20 01:42:09;;;;;;;1.45;1.27;;;17.80;74.30;;;;;;5073413;28;20045;-36
2023/04/20 01:44:36;;;;;;;1.85;1.33;;;;;;;;;;5070821;28;20139;-34
2023/04/20 01:47:03;;;;;;;2.50;1.30;;;18.50;74.60;;;;;;5056076;28;20048;-36
2023/04/20 01:49:30;;;;;;;1.70;1.20;;;;;;;;;;5053493;28;20051;-35
2023/04/20 01:51:57;;;;;;;1.67;1.30;;;;;;;;;;5053303;28;20052;-36
2023/04/20 01:54:24;;;;;;;2.53;1.30;;;;;;;;;;5053231;28;20049;-36
2023/04/20 01:56:52;;;;;;;1.92;1.38;;;18.60;48.20;;;;;;5053068;28;20057;-35
2023/04/20 01:59:19;;;;;;;1.95;1.50;;;;;;;;;;5053292;28;20060;-37
2023/04/20 02:01:46;;;;;;;2.13;1.38;;;;;;;;;;5052639;28;20056;-35
2023/04/20 02:04:13;;;;;;;1.60;1.40;;;;;;;;;;5059834;28;20044;-33
2023/04/20 02:06:40;;;;;;;2.13;1.67;;;18.30;75.00;;;;;;5073039;28;20045;-35
2023/04/20 02:09:08;;;;;;;1.52;1.23;;;;;;;;;;5072470;28;20452;-32
2023/04/20 02:11:35;;;;;;;1.75;1.35;;;;;;;;;;5070847;28;20055;-34
2023/04/20 02:14:03;;;;;;;2.00;1.33;;;;;;;;;;5052739;28;20059;-36
2023/04/20 02:16:30;;;;;;;1.42;1.30;;;18.60;74.70;;;;;;5052985;28;20053;-36
2023/04/20 02:18:57;;;;;;;1.65;1.40;;;;;;;;;;5051521;28;20079;-32
2023/04/20 02:21:24;;;;;;;1.42;1.30;;;18.50;74.60;;;;;;5052801;28;20059;-35
2023/04/20 02:23:51;;;;;;;2.65;1.42;;;;;;;;;;5052109;28;20405;-36
2023/04/20 02:26:17;;;;;;;2.15;1.40;;;19.00;74.70;;;;;;5052713;28;20409;-36
2023/04/20 02:28:44;;;;;;;1.65;1.35;;;17.40;74.30;;;;;;5052477;28;20047;-38
2023/04/20 02:31:12;;;;;;;1.80;1.30;;;18.50;48.10;;;;;;5052412;28;20642;-38
2023/04/20 02:33:40;;;;;;;1.20;1.10;;;18.50;48.10;;;;;;5052222;28;20049;-35
2023/04/20 02:36:08;;;;;;;1.75;1.20;;;;;;;;;;5054728;28;20051;-37
2023/04/20 02:38:34;;;;;;;3.00;1.58;;;19.70;75.40;;;;;;5058961;28;20049;-35
2023/04/20 02:41:01;;;;;;;1.63;1.33;;;;;;;;;;5052177;28;20052;-36
2023/04/20 02:43:28;;;;;;;1.52;1.23;;;18.80;74.90;;;;;;5052150;28;20049;-35
2023/04/20 02:45:55;;;;;;;1.83;1.30;;;;;;;;;;5052400;28;20059;-36
2023/04/20 02:48:24;;;;;;;2.00;1.40;;;;;;;;;;5052474;28;20051;-33
2023/04/20 02:50:51;;;;;;;1.50;1.27;;;18.30;74.70;;;;;;5052069;28;20048;-35
2023/04/20 02:53:18;;;;;;;2.33;1.30;;;;;;;;;;5051938;28;20059;-34
2023/04/20 02:55:45;;;;;;;2.20;1.35;;;18.00;74.50;;;;;;5052056;28;20055;-36
2023/04/20 02:58:12;;;;;;;1.48;1.10;;;;;;;;;;5051967;28;20053;-35
2023/04/20 03:00:39;;;;;;;1.80;1.20;;;17.80;75.00;;;;;;5060576;28;20048;-35
2023/04/20 03:03:06;;;;;;;1.95;1.40;;;;;;;;;;5071340;28;20819;-36
2023/04/20 03:05:35;;;;;;;1.42;1.17;;;;;;;;;;5059093;28;20490;-38
2023/04/20 03:08:04;;;;;;;2.15;1.20;;;18.90;75.50;;;;;;5051808;28;20582;-35
2023/04/20 03:10:31;;;;;;;2.15;1.40;;;;;;;;;;5052091;28;20049;-33
2023/04/20 03:12:57;;;;;;;1.80;1.40;;;18.30;73.40;;;;;;5051713;28;20077;-35
2023/04/20 03:15:24;;;;;;;2.55;1.40;;;;;;;;;;5051867;28;20082;-40
2023/04/20 03:17:51;;;;;;;1.58;1.38;;;18.70;75.00;;;;;;5051973;28;20052;-38
2023/04/20 03:20:18;;;;;;;1.58;1.20;;;19.50;75.50;;;;;;5051768;28;20099;-36
2023/04/20 03:22:46;;;;;;;1.70;1.40;;;18.40;48.10;;;;;;5051615;28;20045;-33
2023/04/20 03:25:13;;;;;;;2.03;1.30;;;;;;;;;;5051559;28;20150;-34
2023/04/20 03:27:40;;;;;;;2.17;1.40;;;17.60;74.80;;;;;;5052143;28;20417;-36
2023/04/20 03:30:07;;;;;;;2.03;1.08;;;;;;;;;;5053539;28;20045;-38
2023/04/20 03:32:34;;;;;;;2.20;1.40;;;18.20;75.20;;;;;;5055420;28;20045;-36
2023/04/20 03:35:01;;;;;;;1.60;1.30;;;;;;;;;;5056067;28;20053;-35
2023/04/20 03:37:28;;;;;;;2.05;1.40;;;18.00;74.70;;;;;;5069187;28;20052;-37
2023/04/20 03:39:56;;;;;;;1.40;1.30;;;18.30;48.00;;;;;;5075884;28;20044;-34
2023/04/20 03:42:23;;;;;;;2.13;1.30;;;;;;;;;;5075570;28;20054;-36
2023/04/20 03:44:50;;;;;;;1.60;1.20;;;;;;;;;;5073173;28;20048;-33
2023/04/20 03:47:17;;;;;;;1.50;1.30;;;18.70;75.60;;;;;;5066809;28;20132;-36
2023/04/20 03:49:44;;;;;;;1.63;1.17;;;;;;;;;;5075528;28;20051;-32
2023/04/20 03:52:10;;;;;;;1.65;1.33;;;18.40;55.80;;;;;;5075119;28;20071;-32
2023/04/20 03:54:38;;;;;;;2.60;1.45;;;;;;;;;;5075445;28;20044;-34
2023/04/20 03:57:06;;;;;;;2.35;1.60;;;;;;;;;;5069450;28;20051;-33
2023/04/20 03:59:33;;;;;;;1.70;1.40;;;18.70;75.10;;;;;;5070901;28;20045;-36
2023/04/20 04:02:00;;;;;;;1.95;1.35;;;;;;;;;;5075099;28;20049;-35
2023/04/20 04:04:27;;;;;;;2.05;1.50;;;18.70;76.10;;;;;;5075022;28;20105;-36
2023/04/20 04:06:54;;;;;;;1.67;1.40;;;;;;;;;;5075102;28;20059;-37
2023/04/20 04:09:21;;;;;;;2.63;1.40;;;18.50;72.60;;;;;;5075114;28;20048;-37
2023/04/20 04:11:48;;;;;;;2.20;1.27;;;;;;;;;;5073235;28;20048;-38
2023/04/20 04:14:16;;;;;;;1.70;1.30;;;;;;;;;;5055058;28;20049;-33
2023/04/20 04:16:44;;;;;;;2.00;1.40;;;;;;;;;;5055155;28;20071;-37
2023/04/20 04:19:11;;;;;;;2.00;1.40;;;;;;;;;;5054820;28;20128;-33
2023/04/20 04:21:37;;;;;;;1.70;1.35;;;17.70;74.70;;;;;;5055209;28;20055;-35
2023/04/20 04:24:05;;;;;;;2.08;1.40;;;;;;;;;;5054733;28;20417;-35
2023/04/20 04:26:32;;;;;;;1.70;1.30;;;;;;;;;;5054642;28;20051;-35
2023/04/20 04:28:59;;;;;;;1.67;1.27;;;;;;;;;;5054865;28;20052;-33
2023/04/20 04:31:27;;;;;;;2.05;1.42;;;;;;;;;;5072024;28;20059;-35
2023/04/20 04:33:55;;;;;;;3.10;1.30;;;;;;;;;;5073726;28;20048;-35
2023/04/20 04:36:23;;;;;;;1.65;1.20;;;18.30;75.50;;;;;;5073141;28;20040;-34
2023/04/20 04:38:50;;;;;;;1.98;1.35;;;18.50;64.00;;;;;;5072672;28;20040;-36
2023/04/20 04:41:17;;;;;;;1.40;1.17;;;;;;;;;;5053648;28;20099;-35
2023/04/20 04:43:44;;;;;;;2.30;1.48;;;19.60;76.00;;;;;;5053806;28;20055;-38
2023/04/20 04:46:12;;;;;;;2.25;1.50;;;;;;;;;;5056560;28;20045;-38
2023/04/20 04:48:41;;;;;;;1.58;1.40;;;18.30;75.30;;;;;;5074206;28;20515;-38
2023/04/20 04:51:08;;;;;;;2.00;1.50;;;;;;;;;;5074636;28;20078;-34
2023/04/20 04:53:35;;;;;;;1.90;1.40;;;16.90;74.50;;;;;;5073551;28;20075;-38
2023/04/20 04:56:02;;;;;;;2.33;1.40;;;18.20;61.50;;;;;;5074074;28;20489;-36
2023/04/20 04:58:29;;;;;;;2.58;1.40;;;18.10;75.20;;;;;;5074116;28;20052;-36
2023/04/20 05:00:56;;;;;;;2.42;1.40;;;18.60;67.70;;;;;;5074029;28;20052;-33
2023/04/20 05:03:23;;;;;;;2.45;1.67;;;18.30;75.70;;;;;;5073673;28;20418;-35
2023/04/20 05:05:51;;;;;;;1.60;1.20;;;18.10;48.20;;;;;;5071821;28;20048;-40
2023/04/20 05:08:18;;;;;;;1.50;1.20;;;;;;;;;;5054247;28;20417;-36
2023/04/20 05:10:44;;;;;;;1.90;1.30;;;19.50;75.70;;;;;;5053871;28;20482;-36
2023/04/20 05:13:11;;;;;;;1.95;1.30;;;;;;;;;;5053717;28;20052;-35
2023/04/20 05:15:38;;;;;;;1.50;1.30;;;;;;;;;;5054011;28;20053;-33
2023/04/20 05:18:05;;;;;;;1.58;1.17;;;17.70;75.40;;;;;;5054053;28;20417;-36
2023/04/20 05:20:33;;;;;;;1.75;1.45;;;;;;;;;;5053727;28;20513;-32
2023/04/20 05:23:01;;;;;;;2.85;1.50;;;18.00;48.10;;;;;;5053636;28;20052;-35
2023/04/20 05:25:27;;;;;;;1.83;1.40;;;18.20;75.10;;;;;;5053751;28;20049;-36
2023/04/20 05:27:54;;;;;;;1.40;1.30;;;;;;;;;;5053504;28;20494;-36
2023/04/20 05:30:21;;;;;;;1.70;1.35;;;17.80;75.10;;;;;;5053901;28;20409;-37
2023/04/20 05:32:48;;;;;;;1.92;1.35;;;17.90;75.50;;;;;;5060795;28;20120;-35
2023/04/20 05:35:15;;;;;;;3.13;1.70;;;;;;;;;;5062256;28;20132;-36
2023/04/20 05:37:42;;;;;;;1.60;1.30;;;18.20;75.80;;;;;;5060209;28;20049;-37
2023/04/20 05:40:11;;;;;;;1.90;1.30;;;;;;;;;;5059922;28;20056;-35
2023/04/20 05:42:37;;;;;;;1.58;1.30;;;17.90;75.10;;;;;;5052302;28;20513;-38
2023/04/20 05:45:05;;;;;;;1.67;1.17;;;;;;;;;;5053221;28;20048;-35
2023/04/20 05:47:31;;;;;;;1.33;1.13;;;17.70;67.00;;;;;;5060077;28;20076;-34
2023/04/20 05:49:58;;;;;;;1.90;1.20;;;18.60;75.30;;;;;;5062516;28;20486;-35
2023/04/20 05:52:25;;;;;;;3.42;1.20;;;;;;;;;;5072556;28;20127;-37
2023/04/20 05:54:52;;;;;;;1.77;1.10;;;18.20;75.30;;;;;;5053080;28;20048;-37
2023/04/20 05:57:22;;;;;;;2.55;1.30;;;18.50;48.10;;;;;;5064411;28;20444;-35
2023/04/20 05:59:49;;;;;;;1.42;1.23;;;18.20;74.60;;;;;;5071266;28;20102;-35
2023/04/20 06:02:16;;;;;;;1.98;1.25;;;;;;;;;;5056085;28;20048;-36
2023/04/20 06:04:43;;;;;;;1.40;1.20;;;18.60;74.60;;;;;;5055972;28;20132;-38
2023/04/20 06:07:10;;;;;;;1.63;1.23;;;;;;;;;;5070659;28;20604;-36
2023/04/20 06:09:37;;;;;;;1.90;1.20;;;19.10;74.70;;;;;;5072809;28;20193;-36
2023/04/20 06:12:04;;;;;;;1.30;1.20;;;;;;;;;;5055792;28;20055;-33
2023/04/20 06:14:32;;;;;;;1.10;1.00;;;19.80;74.80;;;;;;5063955;28;20122;-35
2023/04/20 06:16:59;;;;;;;2.28;1.25;;;19.40;74.30;;;;;;5059912;28;20489;-39
2023/04/20 06:19:26;;;;;;;1.65;1.20;;;;;;;;;;5055090;28;20051;-37
2023/04/20 06:21:53;;;;;;;1.20;1.00;;;20.80;74.70;;;;;;5062555;28;20047;-37
2023/04/20 06:24:20;;;;;;;1.70;1.30;;;;;;;;;;5072311;28;20416;-35
2023/04/20 06:26:46;;;;;;;1.33;1.10;;;20.70;54.30;;;;;;5070949;28;20515;-34
2023/04/20 06:29:13;;;;;;;1.75;1.20;;;19.10;73.30;;;;;;5065937;28;20048;-35
2023/04/20 06:31:41;;;;;;;1.83;1.17;;;20.00;46.70;;;;;;5065308;28;20052;-37
2023/04/20 06:34:08;;;;;;;1.80;1.30;;;;;;;;;;5070259;28;20420;-36
2023/04/20 06:36:35;;;;;;;2.10;1.38;;;;;;;;;;5071771;28;20049;-33
2023/04/20 06:39:02;;;;;;;1.73;1.20;;;19.20;72.80;;;;;;5071953;28;20608;-37
2023/04/20 06:41:29;;;;;;;2.03;1.20;;;;;;;;;;5071877;28;20148;-33
2023/04/20 06:43:56;;;;;;;2.08;1.20;;;20.40;73.10;;;;;;5059749;28;20502;-38
2023/04/20 06:46:23;;;;;;;2.17;1.33;;;;;;;;;;5066636;28;20048;-39
2023/04/20 06:48:51;;;;;;;2.00;1.27;;;;;;;;;;5072117;28;20052;-37
2023/04/20 06:51:18;;;;;;;1.30;1.20;;;21.10;73.70;;;;;;5071929;28;20052;-37
2023/04/20 06:53:45;;;;;;;2.10;1.15;;;;;;;;;;5072199;28;20044;-35
2023/04/20 06:56:12;;;;;;;1.35;1.15;;;;;;;;;;5061586;28;20051;-37
2023/04/20 06:58:39;;;;;;;1.95;1.20;;;;;;;;;;5052106;28;20150;-33
2023/04/20 07:01:06;;;;;;;2.05;1.42;;;;;;;;;;5056503;28;20045;-37
2023/04/20 07:03:33;;;;;;;1.80;1.10;;;;;;;;;;5051819;28;20044;-37
2023/04/20 07:06:02;;;;;;;1.58;1.20;;;;;;;;;;5051364;28;20049;-37
2023/04/20 07:08:28;;;;;;;1.42;1.20;;;21.70;72.40;;;;;;5056321;28;20073;-35
2023/04/20 07:10:56;;;;;;;3.53;1.30;;;;;;;;;;5069019;28;20219;-38
2023/04/20 07:13:22;;;;;;;2.13;1.30;;;20.10;71.40;;;;;;5052648;28;20048;-39
2023/04/20 07:15:49;;;;;;;1.73;1.23;;;21.90;72.40;;;;;;5051844;28;20049;-37
2023/04/20 07:18:16;;;;;;;1.50;1.20;;;;;;;;;;5051796;28;20052;-33
2023/04/20 07:20:43;;;;;;;1.30;1.10;;;21.90;72.00;;;;;;5051998;28;20045;-38
2023/04/20 07:23:11;;;;;;;1.50;1.20;;;21.00;45.60;;;;;;5051524;28;20045;-38
2023/04/20 07:25:38;;;;;;;2.55;1.48;;;;;;;;;;5051783;28;20391;-38
2023/04/20 07:28:04;;;;;;;1.42;1.20;;;22.30;65.50;;;;;;5059014;28;20048;-38
2023/04/20 07:30:31;;;;;;;1.80;1.20;;;19.90;70.80;;;;;;5067228;28;20052;-36
2023/04/20 07:32:58;;;;;;;2.85;1.42;;;;;;;;;;5070569;28;20052;-39
2023/04/20 07:35:25;;;;;;;1.70;1.23;;;20.90;71.10;;;;;;5065913;28;20041;-36
2023/04/20 07:37:52;;;;;;;1.98;1.30;;;21.10;72.10;;;;;;5055281;28;20041;-35
2023/04/20 07:40:20;;;;;;;2.13;1.20;;;;;;;;;;5059007;28;20041;-35
2023/04/20 07:42:47;;;;;;;2.17;1.20;;;;;;;;;;5058237;28;20055;-33
2023/04/20 07:45:14;;;;;;;1.65;1.27;;;;;;;;;;5058527;28;20046;-39
2023/04/20 07:47:43;;;;;;;1.90;1.23;;;;;;;;;;5059683;28;20060;-36
2023/04/20 07:50:11;;;;;;;2.03;1.33;;;;;;;;;;5057732;28;20037;-39
2023/04/20 07:52:37;;;;;;;1.83;1.20;;;21.10;66.30;;;;;;5059702;28;20049;-37
2023/04/20 07:55:06;;;;;;;1.98;1.30;;;;;;;;;;5056758;28;20045;-34
2023/04/20 07:57:35;;;;;;;1.95;1.48;;;;;;;;;;5053342;28;20055;-34
2023/04/20 08:00:03;;;;;;;3.10;1.38;;;22.30;71.40;;;;;;5069373;28;20047;-40
2023/04/20 08:02:32;;;;;;;1.77;1.40;;;;;;;;;;5063261;28;20052;-36
2023/04/20 08:04:59;;;;;;;2.90;1.27;;;;;;;;;;5061040;28;20044;-37
2023/04/20 08:07:26;;;;;;;1.70;1.15;;;20.50;56.00;;;;;;5050663;28;20120;-33
2023/04/20 08:09:53;;;;;;;1.48;1.13;;;;;;;;;;5061410;28;20044;-39
2023/04/20 08:12:20;;;;;;;2.00;1.27;;;;;;;;;;5067858;28;20051;-36
2023/04/20 08:14:48;;;;;;;2.40;1.40;;;21.20;45.40;;;;;;5069555;28;20498;-38
2023/04/20 08:17:15;;;;;;;1.95;1.58;;;;;;;;;;5058469;28;20056;-39
2023/04/20 08:19:42;;;;;;;1.90;1.40;;;;;;;;;;5073406;28;20045;-35
2023/04/20 08:22:11;;;;;;;2.20;1.23;;;21.30;60.20;;;;;;5065709;28;20066;-35
2023/04/20 08:24:38;;;;;;;4.78;1.48;;;;;;;;;;5054003;28;20091;-38
2023/04/20 08:27:05;;;;;;;3.35;1.40;;;21.30;64.90;;;;;;5053812;28;20055;-37
2023/04/20 08:29:32;;;;;;;1.75;1.10;;;;;;;;;;5053918;28;20057;-38
2023/04/20 08:32:00;;;;;;;1.75;1.40;;;;;;;;;;5060768;28;20049;-32
2023/04/20 08:34:27;;;;;;;3.45;1.35;;;;;;;;;;5060839;28;20072;-36
2023/04/20 08:36:55;;;;;;;1.95;1.40;;;;;;;;;;5055114;28;20049;-34
2023/04/20 08:39:22;;;;;;;2.00;1.33;;;;;;;;;;5071060;28;20048;-36
2023/04/20 08:41:52;;;;;;;2.30;1.40;;;;;;;;;;5058625;28;20041;-36
2023/04/20 08:44:19;;;;;;;2.03;1.30;;;;;;;;;;5052786;28;20045;-35
2023/04/20 08:46:47;;;;;;;2.00;1.50;;;;;;;;;;5060758;28;20083;-37
2023/04/20 08:49:16;;;;;;;1.75;1.30;;;20.70;46.00;;;;;;5067249;28;20048;-38
2023/04/20 08:51:43;;;;;;;3.20;1.30;;;;;;;;;;5061206;28;20041;-37
2023/04/20 08:54:10;;;;;;;2.20;1.50;;;;;;;;;;5060035;28;20068;-36
2023/04/20 08:56:37;;;;;;;2.42;1.40;;;;;;;;;;5060900;28;20128;-36
2023/04/20 08:59:05;;;;;;;2.58;1.40;;;;;;;;;;5063808;28;20047;-37
2023/04/20 09:01:34;;;;;;;3.00;1.40;;;;;;;;;;5062565;28;20049;-33
2023/04/20 09:04:01;;;;;;;3.13;1.70;;;;;;;;;;5061487;28;20088;-36
2023/04/20 09:06:30;;;;;;;2.25;1.40;;;;;;;;;;5068125;28;20123;-33
2023/04/20 09:08:56;;;;;;;1.75;1.40;;;19.50;72.00;;;;;;5072237;28;20147;-38
2023/04/20 09:11:23;;;;;;;2.47;1.17;;;;;;;;;;5073270;28;20054;-34
2023/04/20 09:14:00;;;;;;;3.63;1.50;;;;;;;;;;5072890;28;20074;-36
2023/04/20 09:16:27;;;;;;;1.73;1.42;;;;;;;;;;5063489;28;20060;-35
2023/04/20 09:18:55;;;;;;;1.92;1.48;;;20.30;52.90;;;;;;5062154;28;20573;-36
2023/04/20 09:21:22;;;;;;;1.83;1.40;;;;;;;;;;5055607;28;20041;-36
2023/04/20 09:24:00;;;;;;;2.38;1.50;;;;;;;;;;5062984;28;20397;-36
2023/04/20 09:26:27;;;;;;;3.30;1.50;;;20.10;72.90;;;;;;5052316;28;20481;-35
2023/04/20 09:28:54;;;;;;;1.83;1.42;;;;;;;;;;5051612;28;20055;-38
2023/04/20 09:31:22;;;;;;;1.73;1.27;;;;;;;;;;5052386;28;20040;-34
2023/04/20 09:33:58;;;;;;;2.25;1.30;;;;;;;;;;5054307;28;20508;-36
2023/04/20 09:36:26;;;;;;;1.30;1.17;;;;;;;;;;5064769;28;20051;-36
2023/04/20 09:39:04;;;;;;;1.90;1.40;;;20.20;46.80;;;;;;5061924;28;20082;-36
2023/04/20 09:41:32;;;;;;;3.03;1.60;;;;;;;;;;5054704;28;20056;-37
2023/04/20 09:43:59;;;;;;;1.65;1.38;;;;;;;;;;5059300;28;20260;-36
2023/04/20 09:46:26;;;;;;;2.08;1.50;;;;;;;;;;5063075;28;20448;-32
2023/04/20 09:48:53;;;;;;;3.00;1.50;;;;;;;;;;5060057;28;20214;-35
2023/04/20 09:51:20;;;;;;;2.30;1.50;;;;;;;;;;5052209;28;20666;-34
2023/04/20 09:53:47;;;;;;;2.70;1.60;;;19.60;53.40;;;;;;5051909;28;20056;-33
2023/04/20 09:56:15;;;;;;;2.95;1.52;;;19.90;47.40;;;;;;5051914;28;20060;-34
2023/04/20 09:58:42;;;;;;;2.53;1.50;;;;;;;;;;5052295;28;20049;-35
2023/04/20 10:01:10;;;;;;;4.35;1.88;;;;;;;;;;5060962;28;20063;-32
2023/04/20 10:03:37;;;;;;;2.20;1.50;;;;;;;;;;5071516;28;20052;-33
2023/04/20 10:06:05;;;;;;;2.75;1.63;;;;;;;;;;5071861;28;20048;-35
2023/04/20 10:08:40;;;;;;;2.65;1.73;;;;;;;;;;5072084;28;20076;-36
2023/04/20 10:11:08;;;;;;;2.10;1.30;;;;;;;;;;5067098;28;20052;-36
2023/04/20 10:13:37;;;;;;;2.13;1.50;;;;;;;;;;5062928;28;20058;-36
2023/04/20 10:16:05;;;;;;;2.33;1.63;;;;;;;;;;5051767;28;20044;-35
2023/04/20 10:18:32;;;;;;;2.20;1.60;;;;;;;;;;5051877;28;20055;-33
2023/04/20 10:21:04;;;;;;;3.05;1.60;;;;;;;;;;5054548;28;20124;-36
2023/04/20 10:23:31;;;;;;;2.45;1.50;;;;;;;;;;5062062;28;20230;-36
2023/04/20 10:25:59;;;;;;;2.25;1.60;;;19.60;73.50;;;;;;5063941;28;20489;-36
2023/04/20 10:28:26;;;;;;;3.58;2.13;;;20.10;57.40;;;;;;5055137;28;20079;-34
2023/04/20 10:30:55;;;;;;;4.07;1.80;;;19.50;47.50;;;;;;5063921;28;20059;-35
2023/04/20 10:33:22;;;;;;;2.90;1.67;;;;;;;;;;5065624;28;20045;-34
2023/04/20 10:35:50;;;;;;;2.33;1.83;;;;;;;;;;5068193;28;20051;-36
2023/04/20 10:38:27;;;;;;;2.22;1.60;;;20.80;74.40;;;;;;5070313;28;20059;-37
2023/04/20 10:40:54;;;;;;;2.35;1.60;;;;;;;;;;5069873;28;20044;-31
2023/04/20 10:43:21;;;;;;;2.42;1.75;;;;;;;;;;5070864;28;20083;-35
2023/04/20 10:45:48;;;;;;;2.40;1.55;;;;;;;;;;5071213;28;20565;-34
2023/04/20 10:48:16;;;;;;;2.17;1.80;;;19.50;47.60;;;;;;5071512;28;20049;-34
2023/04/20 10:50:43;;;;;;;2.63;1.60;;;;;;;;;;5070974;28;20054;-35
2023/04/20 10:53:21;;;;;;;2.00;1.50;;;;;;;;;;5071215;28;20143;-32
2023/04/20 10:55:50;;;;;;;3.10;1.70;;;;;;;;;;5059206;28;20053;-35
2023/04/20 10:58:23;;;;;;;2.22;1.70;;;19.40;47.50;;;;;;5051138;28;20174;-32
2023/04/20 11:00:58;;;;;;;2.33;1.55;;;;;;;;;;5056662;28;20048;-36
2023/04/20 11:03:27;;;;;;;2.28;1.58;;;19.40;47.60;;;;;;5070197;28;20054;-37
2023/04/20 11:05:56;;;;;;;2.67;1.80;;;;;;;;;;5058578;28;20144;-35
2023/04/20 11:08:23;;;;;;;2.05;1.58;;;;;;;;;;5070130;28;20135;-37
2023/04/20 11:10:49;;;;;;;2.67;1.70;;;19.40;73.60;;;;;;5070536;28;20139;-39
2023/04/20 11:13:21;;;;;;;1.67;1.50;;;;;;;;;;5070581;28;20049;-35
2023/04/20 11:15:47;;;;;;;2.67;1.75;;;20.50;56.30;;;;;;5070703;28;20080;-35
2023/04/20 11:18:14;;;;;;;2.85;1.70;;;;;;;;;;5069841;28;20135;-33
2023/04/20 11:20:51;;;;;;;2.75;1.80;;;;;;;;;;5062928;28;20139;-34
2023/04/20 11:23:19;;;;;;;1.95;1.70;;;;;;;;;;5050028;28;20449;-36
2023/04/20 11:25:51;;;;;;;3.38;1.73;;;19.30;47.60;;;;;;5049227;28;20453;-33
2023/04/20 11:28:18;;;;;;;2.67;1.83;;;;;;;;;;5061182;28;20053;-32
2023/04/20 11:30:45;;;;;;;2.38;1.80;;;;;;;;;;5060309;28;20054;-34
2023/04/20 11:33:12;;;;;;;3.83;1.90;;;19.80;62.30;;;;;;5055299;28;20413;-35
2023/04/20 11:35:40;;;;;;;3.22;2.33;;;;;;;;;;5056573;28;20041;-35
2023/04/20 11:38:08;;;;;;;2.20;1.50;;;;;;;;;;5058481;28;20485;-35
2023/04/20 11:40:36;;;;;;;1.90;1.50;;;;;;;;;;5048604;28;20059;-34
2023/04/20 11:43:03;;;;;;;4.20;1.75;;;19.70;61.90;;;;;;5049462;28;20405;-36
2023/04/20 11:45:32;;;;;;;2.95;1.80;;;19.30;47.70;;;;;;5055291;28;20649;-35
2023/04/20 11:47:59;;;;;;;2.75;1.80;;;;;;;;;;5060016;28;20040;-34
2023/04/20 11:50:26;;;;;;;1.75;1.50;;;;;;;;;;5060062;28;20044;-33
2023/04/20 11:52:53;;;;;;;3.90;1.70;;;19.90;74.40;;;;;;5062499;28;20044;-36
2023/04/20 11:55:21;;;;;;;1.90;1.42;;;;;;;;;;5064441;28;20045;-35
2023/04/20 11:57:49;;;;;;;2.42;1.80;;;;;;;;;;5064461;28;20052;-34
2023/04/20 12:00:17;;;;;;;1.83;1.52;;;;;;;;;;5061686;28;20083;-34
2023/04/20 12:02:44;;;;;;;2.55;1.90;;;;;;;;;;5062742;28;20036;-33
2023/04/20 12:05:11;;;;;;;3.17;1.65;;;;;;;;;;5062939;28;20052;-34
2023/04/20 12:07:38;;;;;;;2.00;1.60;;;19.10;73.60;;;;;;5053786;28;20486;-36
2023/04/20 12:10:05;;;;;;;2.55;1.60;;;;;;;;;;5053497;28;20045;-38
2023/04/20 12:12:33;;;;;;;1.83;1.58;;;19.30;47.60;;;;;;5053627;28;20048;-33
2023/04/20 12:15:00;;;;;;;3.03;1.70;;;;;;;;;;5053678;28;20040;-35
2023/04/20 12:17:28;;;;;;;2.55;1.50;;;;;;;;;;5053464;28;20057;-34
2023/04/20 12:19:56;;;;;;;2.15;1.70;;;;;;;;;;5053640;28;20045;-34
2023/04/20 12:22:23;;;;;;;3.80;1.90;;;;;;;;;;5055033;28;20040;-34
2023/04/20 12:24:50;;;;;;;3.60;1.80;;;;;;;;;;5062873;28;20048;-33
2023/04/20 12:27:17;;;;;;;4.13;1.80;;;;;;;;;;5061769;28;20060;-32
2023/04/20 12:29:46;;;;;;;2.42;1.75;;;;;;;;;;5063291;28;20055;-34
2023/04/20 12:32:13;;;;;;;2.00;1.58;;;20.00;70.10;;;;;;5061874;28;20053;-36
2023/04/20 12:34:40;;;;;;;2.72;1.90;;;;;;;;;;5063993;28;20046;-34
2023/04/20 12:37:07;;;;;;;2.97;1.90;;;;;;;;;;5061050;28;20045;-35
2023/04/20 12:39:34;;;;;;;2.35;1.75;;;;;;;;;;5061778;28;20139;-32
2023/04/20 12:42:02;;;;;;;2.88;1.85;;;;;;;;;;5061999;28;20657;-35
2023/04/20 12:44:29;;;;;;;2.45;1.90;;;;;;;;;;5061899;28;20094;-34
2023/04/20 12:46:58;;;;;;;3.67;1.83;;;;;;;;;;5064367;28;20051;-35
2023/04/20 12:49:24;;;;;;;2.83;1.80;;;18.90;74.90;;;;;;5062961;28;20040;-32
2023/04/20 12:51:51;;;;;;;2.42;1.80;;;19.80;74.40;;;;;;5063679;28;20115;-35
2023/04/20 12:54:18;;;;;;;2.33;1.70;;;;;;;;;;5052569;28;20047;-35
2023/04/20 12:56:45;;;;;;;2.95;2.10;;;;;;;;;;5053018;28;20131;-35
2023/04/20 12:59:13;;;;;;;2.78;1.90;;;;;;;;;;5053200;28;20053;-34
2023/04/20 13:01:40;;;;;;;2.28;1.67;;;;;;;;;;5052581;28;20049;-36
2023/04/20 13:04:08;;;;;;;2.78;1.77;;;;;;;;;;5052059;28;20051;-32
2023/04/20 13:06:35;;;;;;;2.72;1.85;;;19.10;63.90;;;;;;5052637;28;20047;-32
2023/04/20 13:09:03;;;;;;;2.30;1.80;;;;;;;;;;5052529;28;20047;-37
2023/04/20 13:11:30;;;;;;;2.65;1.90;;;;;;;;;;5052269;28;20486;-34
2023/04/20 13:13:57;;;;;;;2.28;1.73;;;;;;;;;;5052353;28;20041;-31
2023/04/20 13:16:24;;;;;;;3.10;2.00;;;19.20;74.10;;;;;;5052359;28;20076;-34
2023/04/20 13:18:51;;;;;;;2.40;1.70;;;;;;;;;;5055323;28;20127;-35
2023/04/20 13:21:19;;;;;;;3.45;1.70;;;;;;;;;;5065947;28;20055;-32
2023/04/20 13:23:46;;;;;;;2.72;1.90;;;19.00;70.10;;;;;;5060250;28;20048;-35
2023/04/20 13:26:12;;;;;;;2.72;1.50;;;19.70;52.70;;;;;;5063223;28;20063;-36
2023/04/20 13:28:39;;;;;;;2.42;1.95;;;;;;;;;;5061526;28;20409;-32
2023/04/20 13:31:06;;;;;;;1.90;1.60;;;;;;;;;;5061985;28;20434;-37
2023/04/20 13:33:33;;;;;;;2.60;1.73;;;;;;;;;;5062765;28;20044;-32
2023/04/20 13:36:00;;;;;;;2.55;1.98;;;;;;;;;;5059580;28;20138;-34
2023/04/20 13:38:29;;;;;;;2.83;1.88;;;19.60;48.00;;;;;;5060391;28;20082;-34
2023/04/20 13:40:56;;;;;;;2.70;2.05;;;;;;;;;;5062798;28;20048;-33
2023/04/20 13:43:23;;;;;;;2.10;1.85;;;;;;;;;;5061030;28;20674;-34
2023/04/20 13:45:50;;;;;;;1.73;1.55;;;;;;;;;;5060996;28;20076;-33
2023/04/20 13:48:17;;;;;;;2.13;1.60;;;18.70;74.10;;;;;;5062998;28;20045;-35
2023/04/20 13:50:44;;;;;;;2.20;1.70;;;;;;;;;;5061037;28;20437;-31
2023/04/20 13:53:11;;;;;;;2.17;1.75;;;;;;;;;;5059257;28;20471;-36
2023/04/20 13:55:39;;;;;;;3.83;2.05;;;;;;;;;;5060237;28;21511;-35
2023/04/20 13:58:06;;;;;;;2.42;1.70;;;;;;;;;;5059542;28;20048;-33
2023/04/20 14:00:34;;;;;;;2.58;1.80;;;;;;;;;;5061446;28;20052;-32
2023/04/20 14:03:01;;;;;;;2.22;2.00;;;;;;;;;;5060165;28;20123;-36
2023/04/20 14:05:29;;;;;;;4.00;1.88;;;;;;;;;;5061369;28;20072;-34
2023/04/20 14:08:00;;;;;;;2.28;1.83;;;;;;;;;;5062436;28;20047;-34
2023/04/20 14:10:27;;;;;;;3.00;1.95;;;;;;;;;;5061644;28;20106;-34
2023/04/20 14:12:56;;;;;;;3.55;1.95;;;;;;;;;;5057553;28;20049;-32
2023/04/20 14:15:23;;;;;;;3.72;1.80;;;;;;;;;;5063800;28;20122;-32
2023/04/20 14:17:50;;;;;;;3.75;1.75;;;;;;;;;;5062303;28;20049;-34
2023/04/20 14:20:17;;;;;;;2.58;1.75;;;;;;;;;;5061922;28;20048;-33
2023/04/20 14:22:44;;;;;;;4.28;1.80;;;;;;;;;;5060909;28;20398;-32
2023/04/20 14:25:11;;;;;;;1.90;1.70;;;;;;;;;;5059680;28;20440;-34
2023/04/20 14:27:38;;;;;;;2.67;1.85;;;;;;;;;;5061845;28;20048;-34
2023/04/20 14:30:08;;;;;;;2.38;1.83;;;;;;;;;;5055483;28;20045;-32
2023/04/20 14:32:35;;;;;;;3.15;1.83;;;;;;;;;;5062413;28;20044;-35
2023/04/20 14:35:03;;;;;;;3.17;1.90;;;20.90;72.10;;;;;;5051379;28;20049;-35
2023/04/20 14:37:30;;;;;;;2.40;2.00;;;;;;;;;;5058237;28;20045;-34
2023/04/20 14:39:56;;;;;;;2.90;1.80;;;19.00;74.60;;;;;;5061893;28;20046;-35
2023/04/20 14:42:23;;;;;;;3.72;2.00;;;;;;;;;;5062734;28;20059;-36
2023/04/20 14:44:50;;;;;;;2.58;2.00;;;;;;;;;;5058935;28;20056;-33
2023/04/20 14:47:19;;;;;;;2.35;1.83;;;19.50;48.60;;;;;;5054008;28;20137;-34
2023/04/20 14:49:46;;;;;;;2.72;2.00;;;;;;;;;;5048656;28;20061;-34
2023/04/20 14:52:13;;;;;;;3.58;2.10;;;;;;;;;;5048327;28;20045;-34
2023/04/20 14:54:40;;;;;;;2.75;1.90;;;;;;;;;;5049651;28;20127;-34
2023/04/20 14:57:07;;;;;;;4.43;1.98;;;19.50;75.30;;;;;;5056783;28;20045;-36
2023/04/20 14:59:35;;;;;;;2.70;2.00;;;;;;;;;;5059729;28;20059;-34
2023/04/20 15:02:04;;;;;;;3.70;1.90;;;;;;;;;;5065186;28;20040;-32
2023/04/20 15:04:32;;;;;;;4.45;1.90;;;;;;;;;;5070426;28;20048;-37
2023/04/20 15:07:00;;;;;;;2.15;1.73;;;;;;;;;;5069959;28;20048;-36
2023/04/20 15:09:27;;;;;;;2.60;2.15;;;;;;;;;;5071061;28;20444;-33
2023/04/20 15:11:54;;;;;;;3.75;1.92;;;;;;;;;;5061870;28;20531;-35
2023/04/20 15:14:21;;;;;;;2.83;2.20;;;;;;;;;;5069929;28;20554;-33